createdAt,value
2022-11-16T00:01:06.007Z,99173.75
2022-11-16T00:03:34.821Z,99164.22
2022-11-16T00:06:04.540Z,99177.03
2022-11-16T00:08:34.704Z,99182.00
2022-11-16T00:11:11.772Z,99186.38
2022-11-16T00:13:40.107Z,99172.59
2022-11-16T00:16:09.123Z,99177.28
2022-11-16T00:18:36.221Z,99167.72
2022-11-16T00:21:05.585Z,99176.03
2022-11-16T00:23:32.950Z,99168.13
2022-11-16T00:26:08.197Z,99181.56
2022-11-16T00:28:37.803Z,99183.94
2022-11-16T00:31:06.974Z,99181.81
2022-11-16T00:33:34.897Z,99181.81
2022-11-16T00:36:03.822Z,99169.41
2022-11-16T00:38:31.303Z,99188.28
2022-11-16T00:40:58.993Z,99166.94
2022-11-16T00:43:26.692Z,99172.91
2022-11-16T00:45:53.905Z,99177.84
2022-11-16T00:48:21.559Z,99166.94
2022-11-16T00:50:48.824Z,99187.94
2022-11-16T00:53:19.558Z,99194.94
2022-11-16T00:55:48.132Z,99179.06
2022-11-16T00:58:17.947Z,99184.78
2022-11-16T01:00:50.790Z,99181.91
2022-11-16T01:03:18.303Z,99188.66
2022-11-16T01:05:46.575Z,99192.03
2022-11-16T01:08:14.846Z,99186.63
2022-11-16T01:10:42.212Z,99176.66
2022-11-16T01:13:11.673Z,99154.69
2022-11-16T01:15:38.836Z,99160.78
2022-11-16T01:18:05.984Z,99167.03
2022-11-16T01:20:33.404Z,99169.34
2022-11-16T01:23:00.446Z,99185.88
2022-11-16T01:25:27.508Z,99174.53
2022-11-16T01:27:54.474Z,99180.69
2022-11-16T01:30:33.208Z,99187.63
2022-11-16T01:33:04.596Z,99173.03
2022-11-16T01:35:31.700Z,99157.25
2022-11-16T01:42:32.013Z,99186.56
2022-11-16T01:45:08.125Z,99185.06
2022-11-16T01:47:35.589Z,99177.28
2022-11-16T01:50:08.889Z,99194.28
2022-11-16T01:52:43.278Z,99175.66
2022-11-16T01:55:11.698Z,99184.84
2022-11-16T01:57:50.580Z,99190.38
2022-11-16T02:00:18.323Z,99182.38
2022-11-16T02:02:56.837Z,99180.22
2022-11-16T02:05:56.214Z,99198.13
2022-11-16T02:08:59.257Z,99183.72
2022-11-16T02:11:43.472Z,99197.91
2022-11-16T02:14:43.900Z,99191.34
2022-11-16T02:17:18.687Z,99190.69
2022-11-16T02:20:07.942Z,99202.91
2022-11-16T02:23:06.390Z,99209.22
2022-11-16T02:25:33.252Z,99207.75
2022-11-16T02:28:34.630Z,99201.59
2022-11-16T02:31:07.722Z,99207.78
2022-11-16T02:33:38.536Z,99207.44
2022-11-16T02:36:10.296Z,99213.88
2022-11-16T02:38:40.623Z,99202.09
2022-11-16T02:41:20.716Z,99210.97
2022-11-16T02:44:14.191Z,99213.13
2022-11-16T02:46:46.381Z,99210.66
2022-11-16T02:49:18.168Z,99206.53
2022-11-16T02:51:49.243Z,99215.97
2022-11-16T02:54:24.741Z,99212.75
2022-11-16T02:57:04.771Z,99223.63
2022-11-16T02:59:42.894Z,99213.97
2022-11-16T03:02:43.905Z,99218.25
2022-11-16T03:05:32.355Z,99198.91
2022-11-16T03:08:36.668Z,99231.34
2022-11-16T03:11:27.164Z,99230.13
2022-11-16T03:14:00.832Z,99233.00
2022-11-16T03:16:36.102Z,99237.59
2022-11-16T03:19:12.295Z,99245.13
2022-11-16T03:21:47.523Z,99238.75
2022-11-16T03:24:15.193Z,99245.16
2022-11-16T03:26:55.321Z,99238.75
2022-11-16T03:29:40.345Z,99237.09
2022-11-16T03:32:22.019Z,99241.09
2022-11-16T03:34:59.910Z,99244.59
2022-11-16T03:37:30.311Z,99241.94
2022-11-16T03:40:02.748Z,99245.16
2022-11-16T03:42:33.272Z,99240.28
2022-11-16T03:45:00.719Z,99245.94
2022-11-16T03:47:29.618Z,99245.81
2022-11-16T03:49:57.270Z,99251.66
2022-11-16T03:52:25.077Z,99242.03
2022-11-16T03:54:53.021Z,99222.88
2022-11-16T03:57:25.074Z,99253.69
2022-11-16T03:59:57.131Z,99255.09
2022-11-16T04:02:31.195Z,99238.16
2022-11-16T04:05:17.847Z,99232.63
2022-11-16T04:08:03.421Z,99242.84
2022-11-16T04:10:49.141Z,99256.13
2022-11-16T04:13:42.280Z,99260.41
2022-11-16T04:16:29.262Z,99260.31
2022-11-16T04:19:14.864Z,99262.94
2022-11-16T04:22:07.917Z,99259.38
2022-11-16T04:24:40.196Z,99264.72
2022-11-16T04:27:28.935Z,99269.38
2022-11-16T04:29:59.036Z,99261.53
2022-11-16T04:32:45.468Z,99273.94
2022-11-16T04:35:31.783Z,99279.31
2022-11-16T04:37:59.437Z,99276.31
2022-11-16T04:40:31.170Z,99276.19
2022-11-16T04:43:01.300Z,99282.78
2022-11-16T04:45:51.750Z,99290.88
2022-11-16T04:48:21.587Z,99280.03
2022-11-16T04:50:52.498Z,99283.97
2022-11-16T04:53:22.568Z,99283.38
2022-11-16T04:56:00.744Z,99291.63
2022-11-16T04:58:29.381Z,99287.69
2022-11-16T05:00:56.611Z,99295.53
2022-11-16T05:03:23.772Z,99298.31
2022-11-16T05:05:53.337Z,99286.38
2022-11-16T05:08:20.879Z,99303.19
2022-11-16T05:10:51.852Z,99304.38
2022-11-16T05:13:19.644Z,99301.06
2022-11-16T05:15:48.126Z,99308.34
2022-11-16T05:18:15.106Z,99311.31
2022-11-16T05:21:00.687Z,99307.88
2022-11-16T05:23:49.496Z,99308.09
2022-11-16T05:26:20.193Z,99308.81
2022-11-16T05:28:48.052Z,99310.81
2022-11-16T05:31:15.209Z,99317.13
2022-11-16T05:33:42.675Z,99312.09
2022-11-16T05:36:10.877Z,99317.31
2022-11-16T05:38:39.188Z,99315.78
2022-11-16T05:41:06.454Z,99309.56
2022-11-16T05:43:34.002Z,99314.78
2022-11-16T05:46:09.943Z,99313.63
2022-11-16T05:48:38.806Z,99313.75
2022-11-16T05:51:06.727Z,99314.53
2022-11-16T05:53:34.770Z,99314.53
2022-11-16T05:56:02.352Z,99320.25
2022-11-16T05:58:32.616Z,99321.31
2022-11-16T06:01:00.406Z,99332.16
2022-11-16T06:03:31.478Z,99322.38
2022-11-16T06:05:59.816Z,99320.34
2022-11-16T06:08:28.986Z,99329.66
2022-11-16T06:11:05.955Z,99326.34
2022-11-16T06:13:36.156Z,99317.66
2022-11-16T06:16:04.762Z,99329.81
2022-11-16T06:18:38.531Z,99338.84
2022-11-16T06:21:06.871Z,99338.94
2022-11-16T06:23:34.324Z,99339.28
2022-11-16T06:26:02.282Z,99348.38
2022-11-16T06:28:30.453Z,99343.06
2022-11-16T06:30:57.866Z,99340.34
2022-11-16T06:33:32.213Z,99342.78
2022-11-16T06:36:06.268Z,99338.66
2022-11-16T06:38:33.815Z,99334.59
2022-11-16T06:41:03.238Z,99329.94
2022-11-16T06:43:33.901Z,99334.09
2022-11-16T06:46:01.016Z,99325.91
2022-11-16T06:48:28.211Z,99338.47
2022-11-16T06:50:55.723Z,99328.56
2022-11-16T06:53:28.734Z,99326.47
2022-11-16T06:56:02.789Z,99335.75
2022-11-16T06:58:32.233Z,99336.00
2022-11-16T07:01:09.231Z,99327.38
2022-11-16T07:03:39.258Z,99327.81
2022-11-16T07:06:10.053Z,99328.72
2022-11-16T07:08:39.316Z,99337.50
2022-11-16T07:11:08.228Z,99338.75
2022-11-16T07:13:37.070Z,99335.81
2022-11-16T07:16:10.901Z,99343.50
2022-11-16T07:18:42.770Z,99333.00
2022-11-16T07:21:13.063Z,99335.78
2022-11-16T07:23:40.736Z,99341.31
2022-11-16T07:26:11.775Z,99335.06
2022-11-16T07:28:48.149Z,99333.66
2022-11-16T07:31:19.994Z,99335.59
2022-11-16T07:33:47.579Z,99332.19
2022-11-16T07:36:37.337Z,99334.28
2022-11-16T07:39:04.633Z,99348.34
2022-11-16T07:41:31.827Z,99339.06
2022-11-16T07:44:12.333Z,99340.91
2022-11-16T07:46:47.159Z,99339.66
2022-11-16T07:49:18.152Z,99332.28
2022-11-16T07:51:59.752Z,99332.66
2022-11-16T07:54:40.284Z,99331.63
2022-11-16T07:57:08.307Z,99323.19
2022-11-16T07:59:35.286Z,99335.88
2022-11-16T08:02:04.319Z,99322.47
2022-11-16T08:04:32.711Z,99329.16
2022-11-16T08:07:03.263Z,99330.13
2022-11-16T08:09:34.848Z,99326.47
2022-11-16T08:12:02.218Z,99325.16
2022-11-16T08:14:31.109Z,99317.66
2022-11-16T08:16:58.310Z,99324.19
2022-11-16T08:19:25.316Z,99329.94
2022-11-16T08:21:53.234Z,99334.03
2022-11-16T08:24:20.508Z,99335.16
2022-11-16T08:26:47.499Z,99335.53
2022-11-16T08:29:15.989Z,99336.63
2022-11-16T08:31:48.287Z,99331.06
2022-11-16T08:34:18.912Z,99335.91
2022-11-16T08:36:49.854Z,99334.47
2022-11-16T08:39:19.215Z,99336.81
2022-11-16T08:41:46.161Z,99332.28
2022-11-16T08:44:15.504Z,99335.03
2022-11-16T08:46:46.215Z,99339.00
2022-11-16T08:49:20.638Z,99351.88
2022-11-16T08:51:47.911Z,99344.25
2022-11-16T08:54:14.966Z,99342.88
2022-11-16T08:56:43.220Z,99349.63
2022-11-16T08:59:11.360Z,99345.13
2022-11-16T09:01:44.130Z,99348.28
2022-11-16T09:04:13.660Z,99348.81
2022-11-16T09:06:40.758Z,99354.66
2022-11-16T09:09:08.024Z,99362.84
2022-11-16T09:11:35.375Z,99353.31
2022-11-16T09:14:02.460Z,99344.47
2022-11-16T09:16:29.942Z,99361.50
2022-11-16T09:18:57.123Z,99351.50
2022-11-16T09:21:28.842Z,99352.53
2022-11-16T09:23:57.746Z,99350.56
2022-11-16T09:26:25.455Z,99354.03
2022-11-16T09:28:58.175Z,99349.09
2022-11-16T09:31:31.102Z,99349.63
2022-11-16T09:33:59.084Z,99345.53
2022-11-16T09:36:28.924Z,99343.16
2022-11-16T09:39:28.730Z,99341.78
2022-11-16T09:41:47.553Z,99354.16
2022-11-16T09:44:42.485Z,99350.47
2022-11-16T09:47:16.558Z,99348.59
2022-11-16T09:49:51.447Z,99347.16
2022-11-16T09:52:39.455Z,99348.88
2022-11-16T09:55:25.637Z,99351.00
2022-11-16T09:57:57.382Z,99342.28
2022-11-16T10:00:24.922Z,99343.22
2022-11-16T10:03:11.241Z,99340.56
2022-11-16T10:05:44.875Z,99342.19
2022-11-16T10:08:20.324Z,99350.25
2022-11-16T10:11:02.760Z,99346.91
2022-11-16T10:13:58.903Z,99343.31
2022-11-16T10:16:39.730Z,99345.00
2022-11-16T10:19:41.777Z,99347.81
2022-11-16T10:22:08.741Z,99343.34
2022-11-16T10:24:53.933Z,99343.38
2022-11-16T10:27:38.355Z,99349.56
2022-11-16T10:30:17.397Z,99345.44
2022-11-16T10:33:10.857Z,99349.28
2022-11-16T10:35:58.710Z,99346.69
2022-11-16T10:38:29.129Z,99354.22
2022-11-16T10:41:01.880Z,99354.47
2022-11-16T10:43:31.985Z,99363.25
2022-11-16T10:46:00.574Z,99355.88
2022-11-16T10:49:05.237Z,99353.78
2022-11-16T10:51:32.390Z,99358.06
2022-11-16T10:53:59.431Z,99358.06
2022-11-16T10:56:37.330Z,99358.31
2022-11-16T10:59:09.503Z,99359.16
2022-11-16T11:01:57.863Z,99348.09
2022-11-16T11:04:26.429Z,99353.75
2022-11-16T11:06:59.364Z,99355.81
2022-11-16T11:09:31.763Z,99359.81
2022-11-16T11:12:35.092Z,99357.31
2022-11-16T11:15:10.774Z,99366.69
2022-11-16T11:17:49.357Z,99363.38
2022-11-16T11:20:16.623Z,99362.56
2022-11-16T11:23:00.764Z,99363.97
2022-11-16T11:25:35.805Z,99353.25
2022-11-16T11:28:17.087Z,99357.25
2022-11-16T11:30:56.493Z,99359.72
2022-11-16T11:33:25.238Z,99348.03
2022-11-16T11:36:20.879Z,99362.50
2022-11-16T11:39:01.690Z,99361.69
2022-11-16T11:41:34.300Z,99361.09
2022-11-16T11:44:03.703Z,99363.34
2022-11-16T11:47:18.353Z,99363.34
2022-11-16T11:49:33.612Z,99367.06
2022-11-16T11:52:11.753Z,99363.16
2022-11-16T11:54:46.152Z,99364.81
2022-11-16T11:57:20.704Z,99364.94
2022-11-16T11:59:50.398Z,99360.59
2022-11-16T12:02:42.397Z,99371.88
2022-11-16T12:05:23.392Z,99368.22
2022-11-16T12:08:04.971Z,99362.13
2022-11-16T12:10:51.385Z,99366.31
2022-11-16T12:13:38.223Z,99362.03
2022-11-16T12:16:33.598Z,99354.97
2022-11-16T12:19:08.944Z,99353.97
2022-11-16T12:21:41.459Z,99362.97
2022-11-16T12:24:29.118Z,99349.09
2022-11-16T12:26:56.083Z,99352.94
2022-11-16T12:29:34.392Z,99342.94
2022-11-16T12:32:07.195Z,99345.28
2022-11-16T12:35:11.250Z,99342.91
2022-11-16T12:37:56.979Z,99342.94
2022-11-16T12:40:33.229Z,99343.47
2022-11-16T12:43:14.743Z,99342.59
2022-11-16T12:45:50.878Z,99342.88
2022-11-16T12:48:45.274Z,99335.22
2022-11-16T12:51:35.623Z,99343.97
2022-11-16T12:54:30.706Z,99348.06
2022-11-16T12:57:29.603Z,99340.22
2022-11-16T13:00:17.360Z,99343.00
2022-11-16T13:02:59.516Z,99348.84
2022-11-16T13:05:48.494Z,99345.63
2022-11-16T13:08:35.493Z,99337.28
2022-11-16T13:11:11.643Z,99346.53
2022-11-16T13:13:40.737Z,99335.34
2022-11-16T13:16:08.750Z,99350.19
2022-11-16T13:18:40.952Z,99342.38
2022-11-16T13:21:46.866Z,99348.72
2022-11-16T13:24:38.419Z,99355.84
2022-11-16T13:27:36.528Z,99342.72
2022-11-16T13:30:15.799Z,99351.13
2022-11-16T13:33:20.159Z,99361.25
2022-11-16T13:35:47.712Z,99366.00
2022-11-16T13:38:15.176Z,99365.09
2022-11-16T13:40:47.109Z,99365.66
2022-11-16T13:43:14.300Z,99361.72
2022-11-16T13:45:51.880Z,99358.41
2022-11-16T13:48:25.252Z,99367.50
2022-11-16T13:50:56.713Z,99357.22
2022-11-16T13:56:28.950Z,99368.81
2022-11-16T13:58:58.618Z,99368.97
2022-11-16T14:01:26.820Z,99365.41
2022-11-16T14:04:32.415Z,99369.81
2022-11-16T14:07:00.441Z,99370.28
2022-11-16T14:09:45.360Z,99383.34
2022-11-16T14:12:49.760Z,99370.66
2022-11-16T14:15:19.567Z,99375.22
2022-11-16T14:18:23.983Z,99370.19
2022-11-16T14:21:05.855Z,99379.19
2022-11-16T14:23:57.529Z,99380.94
2022-11-16T14:26:42.756Z,99374.28
2022-11-16T14:29:28.162Z,99378.81
2022-11-16T14:31:57.771Z,99390.06
2022-11-16T14:34:32.789Z,99386.09
2022-11-16T14:37:00.912Z,99384.78
2022-11-16T14:39:38.272Z,99384.78
2022-11-16T14:42:16.120Z,99388.97
2022-11-16T14:44:44.415Z,99391.25
2022-11-16T14:47:25.327Z,99388.63
2022-11-16T14:49:54.761Z,99393.66
2022-11-16T14:52:38.143Z,99387.41
2022-11-16T14:55:08.425Z,99391.03
2022-11-16T14:57:38.386Z,99402.13
2022-11-16T15:00:23.523Z,99398.91
2022-11-16T15:03:02.113Z,99401.41
2022-11-16T15:05:34.936Z,99387.66
2022-11-16T15:08:08.051Z,99397.81
2022-11-16T15:10:35.876Z,99390.75
2022-11-16T15:13:03.926Z,99377.72
2022-11-16T15:15:32.008Z,99385.59
2022-11-16T15:17:59.307Z,99389.78
2022-11-16T15:20:29.805Z,99382.75
2022-11-16T15:22:59.713Z,99355.38
2022-11-16T15:25:43.847Z,99391.97
2022-11-16T15:28:20.689Z,99388.13
2022-11-16T15:30:53.006Z,99381.69
2022-11-16T15:33:30.418Z,99380.56
2022-11-16T15:35:58.228Z,99387.88
2022-11-16T15:38:27.993Z,99390.50
2022-11-16T15:40:57.842Z,99387.19
2022-11-16T15:43:38.092Z,99388.13
2022-11-16T15:46:08.994Z,99385.03
2022-11-16T15:48:38.834Z,99383.59
2022-11-16T15:51:17.131Z,99377.97
2022-11-16T15:53:46.841Z,99386.94
2022-11-16T15:56:22.034Z,99383.59
2022-11-16T15:58:49.621Z,99372.47
2022-11-16T16:01:17.729Z,99379.16
2022-11-16T16:03:58.015Z,99370.19
2022-11-16T16:06:49.490Z,99372.81
2022-11-16T16:09:34.117Z,99363.84
2022-11-16T16:12:29.549Z,99368.75
2022-11-16T16:15:32.143Z,99341.78
2022-11-16T16:18:40.087Z,99371.16
2022-11-16T16:21:10.536Z,99369.97
2022-11-16T16:23:49.620Z,99365.56
2022-11-16T16:26:17.539Z,99370.78
2022-11-16T16:28:50.519Z,99362.78
2022-11-16T16:31:20.626Z,99359.91
2022-11-16T16:33:50.041Z,99364.59
2022-11-16T16:36:17.777Z,99371.41
2022-11-16T16:38:44.784Z,99362.31
2022-11-16T16:41:24.471Z,99373.66
2022-11-16T16:43:52.201Z,99374.72
2022-11-16T16:46:19.982Z,99369.69
2022-11-16T16:48:47.817Z,99369.13
2022-11-16T16:51:15.551Z,99363.03
2022-11-16T16:53:42.639Z,99362.06
2022-11-16T16:56:16.600Z,99358.34
2022-11-16T16:58:43.636Z,99366.13
2022-11-16T17:01:11.640Z,99358.34
2022-11-16T17:03:38.762Z,99360.88
2022-11-16T17:06:06.264Z,99349.16
2022-11-16T17:08:35.989Z,99357.84
2022-11-16T17:11:04.347Z,99352.38
2022-11-16T17:13:31.849Z,99353.22
2022-11-16T17:16:05.346Z,99355.00
2022-11-16T17:18:32.324Z,99358.25
2022-11-16T17:21:04.809Z,99349.16
2022-11-16T17:23:32.122Z,99332.56
2022-11-16T17:26:03.053Z,99345.94
2022-11-16T17:28:33.062Z,99342.72
2022-11-16T17:31:07.791Z,99344.13
2022-11-16T17:33:36.977Z,99338.28
2022-11-16T17:36:06.460Z,99341.16
2022-11-16T17:38:35.336Z,99346.06
2022-11-16T17:41:09.639Z,99339.59
2022-11-16T17:43:37.014Z,99337.44
2022-11-16T17:46:12.599Z,99341.16
2022-11-16T17:48:44.449Z,99341.75
2022-11-16T17:51:13.396Z,99341.59
2022-11-16T17:53:46.468Z,99341.16
2022-11-16T17:56:18.803Z,99335.31
2022-11-16T17:58:50.379Z,99331.69
2022-11-16T18:01:17.601Z,99332.19
2022-11-16T18:03:49.508Z,99329.06
2022-11-16T18:06:24.493Z,99315.44
2022-11-16T18:08:55.026Z,99330.47
2022-11-16T18:11:25.431Z,99331.44
2022-11-16T18:13:57.323Z,99327.38
2022-11-16T18:16:30.853Z,99315.91
2022-11-16T18:19:07.606Z,99308.00
2022-11-16T18:21:42.590Z,99317.06
2022-11-16T18:24:10.812Z,99324.31
2022-11-16T18:26:39.284Z,99309.66
2022-11-16T18:29:07.485Z,99308.44
2022-11-16T18:31:35.375Z,99314.41
2022-11-16T18:34:02.882Z,99306.88
2022-11-16T18:36:30.545Z,99304.00
2022-11-16T18:38:57.545Z,99310.81
2022-11-16T18:41:31.086Z,99308.19
2022-11-16T18:44:01.178Z,99304.84
2022-11-16T18:46:31.777Z,99303.66
2022-11-16T18:49:00.103Z,99304.88
2022-11-16T18:51:29.167Z,99297.00
2022-11-16T18:53:56.306Z,99289.69
2022-11-16T18:56:24.189Z,99292.41
2022-11-16T18:58:53.983Z,99303.16
2022-11-16T19:01:24.134Z,99296.56
2022-11-16T19:03:53.005Z,99289.03
2022-11-16T19:06:20.614Z,99302.16
2022-11-16T19:08:55.279Z,99277.94
2022-11-16T19:11:24.174Z,99280.47
2022-11-16T19:13:57.432Z,99298.72
2022-11-16T19:16:27.327Z,99293.31
2022-11-16T19:19:02.092Z,99304.38
2022-11-16T19:21:33.022Z,99286.06
2022-11-16T19:24:02.692Z,99283.78
2022-11-16T19:26:32.666Z,99273.03
2022-11-16T19:29:05.117Z,99290.97
2022-11-16T19:31:33.245Z,99292.38
2022-11-16T19:34:06.265Z,99295.22
2022-11-16T19:36:37.755Z,99296.88
2022-11-16T19:39:06.026Z,99294.50
2022-11-16T19:41:33.737Z,99294.44
2022-11-16T19:44:02.082Z,99286.28
2022-11-16T19:46:32.015Z,99291.03
2022-11-16T19:49:09.052Z,99291.91
2022-11-16T19:51:36.512Z,99273.81
2022-11-16T19:54:03.604Z,99283.91
2022-11-16T19:56:30.923Z,99277.25
2022-11-16T19:59:01.395Z,99273.03
2022-11-16T20:01:29.702Z,99273.75
2022-11-16T20:03:59.977Z,99274.19
2022-11-16T20:06:32.907Z,99280.03
2022-11-16T20:09:20.177Z,99269.19
2022-11-16T20:11:51.800Z,99264.97
2022-11-16T20:14:18.965Z,99264.75
2022-11-16T20:16:50.092Z,99252.22
2022-11-16T20:19:19.451Z,99245.53
2022-11-16T20:21:49.537Z,99261.94
2022-11-16T20:24:18.102Z,99267.72
2022-11-16T20:26:49.401Z,99250.22
2022-11-16T20:29:19.594Z,99274.56
2022-11-16T20:31:47.340Z,99254.97
2022-11-16T20:34:18.991Z,99252.31
2022-11-16T20:36:51.011Z,99269.56
2022-11-16T20:39:20.673Z,99264.16
2022-11-16T20:41:48.411Z,99262.44
2022-11-16T20:44:32.555Z,99242.34
2022-11-16T20:47:02.729Z,99250.53
2022-11-16T20:49:33.275Z,99239.44
2022-11-16T20:52:05.911Z,99229.75
2022-11-16T20:54:33.789Z,99250.47
2022-11-16T20:57:04.625Z,99218.91
2022-11-16T20:59:33.019Z,99218.06
2022-11-16T21:02:10.679Z,99229.47
2022-11-16T21:04:37.993Z,99231.81
2022-11-16T21:07:08.108Z,99229.63
2022-11-16T21:13:19.713Z,99234.81
2022-11-16T21:16:22.074Z,99238.31
2022-11-16T21:18:51.780Z,99240.41
2022-11-16T21:21:20.244Z,99234.59
2022-11-16T21:23:51.863Z,99244.31
2022-11-16T21:26:21.259Z,99236.13
2022-11-16T21:28:48.816Z,99230.72
2022-11-16T21:31:21.490Z,99223.75
2022-11-16T21:33:48.997Z,99218.78
2022-11-16T21:36:18.859Z,99222.38
2022-11-16T21:38:47.052Z,99203.63
2022-11-16T21:41:17.547Z,99213.81
2022-11-16T21:43:46.524Z,99213.81
2022-11-16T21:46:19.298Z,99228.28
2022-11-16T21:48:48.349Z,99225.75
2022-11-16T21:51:18.166Z,99200.59
2022-11-16T21:53:45.587Z,99225.91
2022-11-16T21:56:15.047Z,99219.66
2022-11-16T21:58:42.751Z,99223.00
2022-11-16T22:01:12.094Z,99203.53
2022-11-16T22:03:44.839Z,99232.00
2022-11-16T22:06:34.785Z,99221.03
2022-11-16T22:09:05.194Z,99218.56
2022-11-16T22:11:32.244Z,99222.44
2022-11-16T22:13:59.470Z,99202.44
2022-11-16T22:16:26.546Z,99219.25
2022-11-16T22:18:53.602Z,99207.72
2022-11-16T22:21:20.664Z,99214.38
2022-11-16T22:23:47.570Z,99211.91
2022-11-16T22:26:14.898Z,99210.38
2022-11-16T22:28:45.217Z,99209.69
2022-11-16T22:31:14.956Z,99211.47
2022-11-16T22:33:42.644Z,99210.53
2022-11-16T22:36:10.930Z,99198.53
2022-11-16T22:38:38.188Z,99196.34
2022-11-16T22:41:06.652Z,99196.78
2022-11-16T22:43:36.243Z,99196.34
2022-11-16T22:46:06.396Z,99176.63
2022-11-16T22:48:37.408Z,99190.22
2022-11-16T22:51:07.891Z,99177.88
2022-11-16T22:53:35.560Z,99175.22
2022-11-16T22:56:08.643Z,99183.97
2022-11-16T22:58:37.334Z,99191.06
2022-11-16T23:01:07.506Z,99187.31
2022-11-16T23:03:35.380Z,99190.78
2022-11-16T23:06:04.030Z,99195.25
2022-11-16T23:08:31.996Z,99189.25
2022-11-16T23:11:26.297Z,99186.06
2022-11-16T23:14:12.791Z,99173.00
2022-11-16T23:16:40.859Z,99185.22
2022-11-16T23:19:28.329Z,99187.31
2022-11-16T23:22:14.474Z,99179.97
2022-11-16T23:25:00.758Z,99188.16
2022-11-16T23:27:34.346Z,99188.53
2022-11-16T23:30:09.212Z,99188.81
2022-11-16T23:32:39.141Z,99178.56
2022-11-16T23:35:06.617Z,99176.50
2022-11-16T23:37:33.555Z,99164.25
2022-11-16T23:40:00.609Z,99162.72
2022-11-16T23:42:46.206Z,99172.03
2022-11-16T23:45:13.412Z,99171.34
2022-11-16T23:47:40.451Z,99163.00
2022-11-16T23:50:07.733Z,99162.44
2022-11-16T23:52:34.815Z,99158.97
2022-11-16T23:55:01.831Z,99154.53
2022-11-16T23:57:30.495Z,99153.97
2022-11-16T23:59:57.534Z,99155.22
